TimePST,TemperatureF,Dew PointF,Humidity,Sea Level PressureIn,VisibilityMPH,Wind Direction,Wind SpeedMPH,Gust SpeedMPH,PrecipitationIn,Events,Conditions,WindDirDegrees,DateUTC
12:10 AM,28.0,27.0,96,30.16,2.0,SW,3.5,-,N/A,,Mostly Cloudy,220,2013-12-19 08:10:00
12:19 AM,28.9,28.0,96,30.17,1.0,Calm,Calm,-,N/A,,Mist,0,2013-12-19 08:19:00
12:23 AM,28.9,27.0,92,30.17,2.0,NW,4.6,-,N/A,,Scattered Clouds,310,2013-12-19 08:23:00
12:31 AM,30.0,28.9,96,30.18,10.0,WNW,5.8,-,N/A,,Partly Cloudy,300,2013-12-19 08:31:00
12:43 AM,30.0,28.0,92,30.19,10.0,Calm,Calm,-,N/A,,Mostly Cloudy,0,2013-12-19 08:43:00
12:53 AM,30.9,30.0,96,30.21,10.0,West,3.5,-,N/A,,Scattered Clouds,260,2013-12-19 08:53:00
1:53 AM,28.9,28.0,96,30.23,6.0,West,5.8,-,N/A,,Partly Cloudy,270,2013-12-19 09:53:00
2:53 AM,28.0,27.0,96,30.25,10.0,NNE,4.6,-,N/A,,Clear,30,2013-12-19 10:53:00
3:00 AM,28.9,27.0,92,30.23,9.0,East,3.5,-,N/A,,Partly Cloudy,80,2013-12-19 11:00:00
3:53 AM,28.0,27.0,96,30.27,2.5,SW,3.5,-,N/A,,Partly Cloudy,230,2013-12-19 11:53:00
3:56 AM,25.0,24.1,96,30.25,1.0,SW,6.9,-,N/A,,Mist,220,2013-12-19 11:56:00
4:05 AM,26.1,24.1,92,30.25,3.0,SSW,3.5,-,N/A,,Mostly Cloudy,210,2013-12-19 12:05:00
4:23 AM,26.1,24.1,92,30.25,1.8,Calm,Calm,-,N/A,,Mostly Cloudy,0,2013-12-19 12:23:00
4:41 AM,27.0,25.0,92,30.25,0.5,Calm,Calm,-,N/A,Fog,Light Freezing Fog,0,2013-12-19 12:41:00
4:53 AM,27.0,26.1,96,30.28,0.2,Calm,Calm,-,N/A,Fog,Light Freezing Fog,0,2013-12-19 12:53:00
5:03 AM,27.0,25.0,92,30.26,2.0,Calm,Calm,-,N/A,,Mostly Cloudy,0,2013-12-19 13:03:00
5:07 AM,25.0,23.0,92,30.26,0.8,SSW,3.5,-,N/A,,Mist,210,2013-12-19 13:07:00
5:26 AM,26.1,24.1,92,30.26,2.0,Calm,Calm,-,N/A,,Scattered Clouds,0,2013-12-19 13:26:00
5:53 AM,25.0,24.1,96,30.28,5.0,Calm,Calm,-,N/A,,Clear,0,2013-12-19 13:53:00
6:27 AM,23.0,21.0,92,30.26,1.8,Calm,Calm,-,N/A,,Clear,0,2013-12-19 14:27:00
6:38 AM,26.1,24.1,92,30.26,3.0,Calm,Calm,-,N/A,,Clear,0,2013-12-19 14:38:00
6:53 AM,25.0,23.0,92,30.29,8.0,Calm,Calm,-,N/A,,Clear,0,2013-12-19 14:53:00
7:53 AM,26.1,24.1,92,30.31,10.0,WNW,4.6,-,N/A,,Clear,300,2013-12-19 15:53:00
8:53 AM,25.0,23.0,92,30.31,10.0,SW,3.5,-,N/A,,Clear,220,2013-12-19 16:53:00
9:53 AM,30.0,28.9,96,30.34,10.0,Calm,Calm,-,N/A,,Clear,0,2013-12-19 17:53:00
10:53 AM,32.0,30.9,96,30.36,10.0,Calm,Calm,-,N/A,,Clear,0,2013-12-19 18:53:00
11:53 AM,34.0,32.0,92,30.32,10.0,SW,3.5,-,N/A,,Clear,220,2013-12-19 19:53:00
12:53 PM,35.1,30.0,82,30.28,10.0,WSW,3.5,-,N/A,,Clear,250,2013-12-19 20:53:00
1:53 PM,36.0,30.9,82,30.29,10.0,South,3.5,-,N/A,,Clear,180,2013-12-19 21:53:00
2:53 PM,36.0,32.0,86,30.30,10.0,Calm,Calm,-,N/A,,Mostly Cloudy,0,2013-12-19 22:53:00
3:53 PM,35.1,33.1,92,30.29,10.0,Calm,Calm,-,N/A,,Overcast,0,2013-12-19 23:53:00
4:53 PM,33.1,30.9,92,30.29,10.0,Calm,Calm,-,N/A,,Overcast,0,2013-12-20 00:53:00
5:53 PM,33.1,30.9,92,30.27,10.0,Calm,Calm,-,N/A,,Overcast,0,2013-12-20 01:53:00
6:53 PM,32.0,30.9,96,30.26,10.0,Calm,Calm,-,N/A,,Mostly Cloudy,0,2013-12-20 02:53:00
7:53 PM,30.9,28.9,92,30.25,10.0,Calm,Calm,-,N/A,,Overcast,0,2013-12-20 03:53:00
8:53 PM,30.9,30.0,96,30.23,8.0,Calm,Calm,-,N/A,,Overcast,0,2013-12-20 04:53:00
9:53 PM,32.0,30.0,92,30.22,10.0,Calm,Calm,-,N/A,,Overcast,0,2013-12-20 05:53:00
10:53 PM,32.0,30.0,92,30.19,10.0,Calm,Calm,-,N/A,,Scattered Clouds,0,2013-12-20 06:53:00
11:53 PM,32.0,30.0,92,30.20,10.0,SW,3.5,-,N/A,,Overcast,220,2013-12-20 07:53:00